Latest Weather Observations for Tewantin

IDQ60901

Issued at 11:21 am EST Wednesday 6 May 2015 (issued every 10 minutes, with the page automatically refreshed every 10 minutes)

About weather observations | Map of Brisbane area stations | Latest observations for Brisbane area | Other Formats
Station Details ID: 040908 Name: TEWANTIN RSL PARK Lat: -26.39 Lon: 153.04 Height: 6.4 m
Data from the previous 72 hours. | See also: Recent months at Tewantin
Date/Time
EST
Tmp

°C
App
Tmp
°C
Dew
Point
°C
Rel
Hum
%
Delta-T

°C
Wind Press
QNH
hPa
Press
MSL
hPa
Rain
since
9 am
mm
Dir
 
Spd
km/h
Gust
km/h
Spd
kts
Gust
kts
06/11:00am 27.6 28.1 16.6 51 6.8 WNW 9 17 5 9 1014.2 1014.2 0.0
06/10:30am 27.1 28.4 17.6 56 6.0 WNW 7 11 4 6 1014.4 1014.4 0.0
06/10:00am 25.5 27.2 18.4 65 4.5 NNW 7 11 4 6 1014.7 1014.7 0.0
06/09:30am 25.0 27.4 19.6 72 3.5 NW 6 11 3 6 1014.7 1014.7 0.0
06/09:00am 23.7 25.6 19.0 75 3.0 NW 7 13 4 7 1014.8 1014.8 0.0
06/08:30am 22.5 24.5 19.1 81 2.2 NW 7 11 4 6 1014.7 1014.7 0.0
06/08:00am 21.1 22.7 18.3 84 1.7 NW 7 11 4 6 1014.7 1014.7 0.0
06/07:30am 19.3 20.5 17.3 88 1.2 WNW 7 11 4 6 1014.4 1014.4 0.0
06/07:00am 18.4 19.7 17.6 95 0.5 WNW 7 9 4 5 1014.1 1014.1 0.0
06/06:30am 17.2 18.5 17.0 99 0.1 NW 6 9 3 5 1013.8 1013.8 0.0
06/06:00am 16.7 18.9 16.4 98 0.2 CALM 0 4 0 2 1013.5 1013.5 0.0
06/05:30am 17.1 18.3 16.8 98 0.2 W 6 7 3 4 1013.2 1013.2 0.0
06/05:00am 16.9 18.0 16.6 98 0.2 WNW 6 9 3 5 1013.0 1013.0 0.0
06/04:30am 17.1 18.2 16.6 97 0.3 WNW 6 7 3 4 1012.7 1012.7 0.0
06/04:00am 17.3 18.4 17.0 98 0.2 WNW 7 11 4 6 1012.5 1012.5 0.0
06/03:30am 17.5 18.6 17.2 98 0.2 NW 7 11 4 6 1012.3 1012.3 0.0
06/03:00am 17.5 18.9 17.3 99 0.1 WNW 6 9 3 5 1012.3 1012.3 0.0
06/02:30am 17.6 20.1 17.3 98 0.2 CALM 0 0 0 0 1012.4 1012.4 0.0
06/02:00am 18.1 20.5 17.9 99 0.1 WNW 2 6 1 3 1012.7 1012.7 0.0
06/01:30am 18.5 21.1 18.3 99 0.1 N 2 6 1 3 1013.0 1013.0 0.0
06/01:00am 18.8 20.7 18.6 99 0.1 NNW 6 7 3 4 1013.2 1013.2 0.0
06/12:30am 18.9 20.9 18.7 99 0.1 NNW 6 7 3 4 1013.3 1013.3 0.0
06/12:00am 19.1 21.0 18.6 97 0.3 NW 6 9 3 5 1013.4 1013.4 0.0
 
Date/Time
EST
Tmp

°C
App
Tmp
°C
Dew
Point
°C
Rel
Hum
%
Delta-T

°C
Wind Press
QNH
hPa
Press
MSL
hPa
Rain
since
9 am
mm
Dir
 
Spd
km/h
Gust
km/h
Spd
kts
Gust
kts
05/11:30pm 19.3 21.3 18.8 97 0.3 NW 6 9 3 5 1013.4 1013.4 0.0
05/11:00pm 19.6 21.6 18.8 95 0.5 NNW 6 7 3 4 1013.4 1013.4 0.0
05/10:30pm 20.0 22.1 19.3 96 0.4 NNW 7 7 4 4 1013.5 1013.5 0.0
05/10:00pm 19.8 23.1 19.1 96 0.4 CALM 0 0 0 0 1013.7 1013.7 0.0
05/09:30pm 20.1 23.2 18.6 91 0.9 CALM 0 0 0 0 1013.7 1013.7 0.0
05/09:00pm 20.6 23.1 19.1 91 0.9 W 4 7 2 4 1013.3 1013.3 0.0
05/08:30pm 20.5 22.4 19.0 91 0.9 NW 7 9 4 5 1012.9 1012.9 0.0
05/08:00pm 20.7 24.0 19.0 90 1.1 CALM 0 0 0 0 1012.5 1012.5 0.0
05/07:30pm 21.3 24.5 18.9 86 1.5 CALM 0 0 0 0 1012.1 1012.1 0.0
05/07:00pm 22.3 24.4 18.9 81 2.1 NW 6 7 3 4 1011.6 1011.6 0.0
05/06:30pm 22.6 24.7 19.0 80 2.3 N 6 7 3 4 1011.3 1011.3 0.0
05/06:00pm 22.8 24.4 19.2 80 2.3 NNE 9 11 5 6 1011.0 1011.0 0.0
05/05:30pm 23.2 24.5 19.4 79 2.4 NNE 11 15 6 8 1010.7 1010.7 0.0
05/05:00pm 23.5 25.0 19.8 80 2.4 NNE 11 17 6 9 1010.5 1010.5 0.0
05/04:30pm 24.0 24.9 19.3 75 3.0 NNE 13 19 7 10 1010.4 1010.4 0.0
05/04:00pm 24.3 25.5 19.1 73 3.3 NNE 11 15 6 8 1010.3 1010.3 0.0
05/03:30pm 24.4 25.3 19.2 73 3.3 NE 13 17 7 9 1010.3 1010.3 0.0
05/03:00pm 24.8 25.4 18.7 69 3.9 NNE 13 17 7 9 1010.2 1010.2 0.0
05/02:30pm 25.5 26.4 18.4 65 4.5 NE 11 17 6 9 1010.4 1010.4 0.0
05/02:00pm 25.9 26.5 18.6 64 4.7 NE 13 17 7 9 1010.6 1010.6 0.0
05/01:30pm 26.3 27.8 18.9 63 4.7 NE 9 17 5 9 1010.9 1010.9 0.0
05/01:00pm 25.9 27.6 18.1 62 4.9 SE 6 9 3 5 1011.2 1011.2 0.0
05/12:30pm 25.7 27.4 18.1 63 4.8 ESE 6 11 3 6 1011.8 1011.8 0.0
05/12:00pm 25.0 26.1 17.2 62 4.8 S 7 11 4 6 1012.4 1012.4 0.0
05/11:30am 25.7 27.8 18.9 66 4.3 WSW 6 9 3 5 1013.1 1013.1 0.0
05/11:00am 25.7 26.7 16.8 58 5.5 NW 7 11 4 6 1013.5 1013.5 0.0
05/10:30am 25.8 27.6 18.2 63 4.8 NW 6 9 3 5 1014.0 1014.0 0.0
05/10:00am 25.1 25.9 17.3 62 4.9 WNW 9 13 5 7 1014.3 1014.3 0.0
05/09:30am 24.4 26.3 17.6 66 4.2 SW 4 7 2 4 1014.5 1014.5 0.0
05/09:00am 23.0 24.3 17.2 70 3.6 NNW 6 7 3 4 1014.4 1014.4 0.0
05/08:30am 22.5 23.8 17.2 72 3.3 WNW 6 9 3 5 1014.3 1014.3 0.0
05/08:00am 20.7 22.1 16.5 77 2.5 WNW 4 9 2 5 1014.1 1014.1 0.0
05/07:30am 18.7 20.7 17.0 90 1.0 NW 2 6 1 3 1013.7 1013.7 0.0
05/07:00am 17.2 19.4 16.6 96 0.4 CALM 0 0 0 0 1013.6 1013.6 0.0
05/06:30am 15.8 17.6 15.6 99 0.1 CALM 0 0 0 0 1013.4 1013.4 0.0
05/06:00am 15.7 17.5 15.5 99 0.1 CALM 0 0 0 0 1013.3 1013.3 0.0
05/05:30am 15.8 17.6 15.6 99 0.1 CALM 0 0 0 0 1013.0 1013.0 0.0
05/05:00am 15.9 17.8 15.7 99 0.1 CALM 0 0 0 0 1012.9 1012.9 0.0
05/04:30am 15.9 17.7 15.6 98 0.2 CALM 0 0 0 0 1012.7 1012.7 0.0
05/04:00am 16.2 18.2 15.9 98 0.2 CALM 0 0 0 0 1012.7 1012.7 0.0
05/03:30am 16.2 18.2 15.9 98 0.2 CALM 0 0 0 0 1012.8 1012.8 0.0
05/03:00am 16.6 18.8 16.4 99 0.1 CALM 0 0 0 0 1012.8 1012.8 0.0
05/02:30am 16.6 18.6 16.1 97 0.3 CALM 0 0 0 0 1012.8 1012.8 0.0
05/02:00am 16.9 18.7 16.4 97 0.3 SW 2 6 1 3 1013.1 1013.1 0.0
05/01:30am 16.9 19.1 16.6 98 0.2 CALM 0 0 0 0 1013.4 1013.4 0.0
05/01:00am 17.3 19.7 17.1 99 0.1 CALM 0 0 0 0 1013.7 1013.7 0.0
05/12:30am 17.0 19.2 16.5 97 0.3 CALM 0 0 0 0 1013.9 1013.9 0.0
05/12:00am 17.2 19.4 16.6 96 0.4 CALM 0 0 0 0 1014.1 1014.1 0.0
 
Date/Time
EST
Tmp

°C
App
Tmp
°C
Dew
Point
°C
Rel
Hum
%
Delta-T

°C
Wind Press
QNH
hPa
Press
MSL
hPa
Rain
since
9 am
mm
Dir
 
Spd
km/h
Gust
km/h
Spd
kts
Gust
kts
04/11:30pm 17.4 19.7 16.8 96 0.4 CALM 0 0 0 0 1014.2 1014.2 0.0
04/11:00pm 17.4 19.5 16.3 93 0.7 CALM 0 0 0 0 1014.5 1014.5 0.0
04/10:30pm 17.6 19.8 16.5 93 0.7 CALM 0 0 0 0 1014.5 1014.5 0.0
04/10:00pm 17.8 20.1 16.7 93 0.7 CALM 0 0 0 0 1014.4 1014.4 0.0
04/09:30pm 18.1 20.5 17.1 94 0.6 CALM 0 0 0 0 1014.4 1014.4 0.0
04/09:00pm 18.4 20.8 16.9 91 0.9 CALM 0 0 0 0 1014.4 1014.4 0.0
04/08:30pm 18.7 21.0 16.7 88 1.2 CALM 0 0 0 0 1014.2 1014.2 0.0
04/08:00pm 19.0 21.4 17.0 88 1.2 CALM 0 0 0 0 1014.0 1014.0 0.0
04/07:30pm 19.1 21.4 16.7 86 1.4 CALM 0 0 0 0 1013.7 1013.7 0.0
04/07:00pm 19.5 21.6 16.2 81 2.0 CALM 0 0 0 0 1013.5 1013.5 0.0
04/06:30pm 20.4 22.4 16.0 76 2.6 CALM 0 6 0 3 1013.4 1013.4 0.0
04/06:00pm 21.4 23.6 16.6 74 2.9 CALM 0 0 0 0 1013.0 1013.0 0.0
04/05:30pm 22.2 23.1 16.0 68 3.7 SE 6 9 3 5 1012.7 1012.7 0.0
04/05:00pm 22.5 23.1 15.8 66 4.0 ESE 7 13 4 7 1012.4 1012.4 0.0
04/04:30pm 23.2 23.4 14.7 58 5.0 ESE 7 11 4 6 1011.9 1011.9 0.0
04/04:00pm 23.6 22.7 12.6 50 6.3 SE 9 17 5 9 1011.7 1011.7 0.0
04/03:30pm 23.8 23.1 13.1 51 6.2 SE 9 15 5 8 1011.7 1011.7 0.0
04/03:00pm 23.9 22.3 12.8 49 6.4 SE 13 19 7 10 1011.6 1011.6 0.0
04/02:30pm 24.0 21.9 12.3 48 6.7 ESE 15 20 8 11 1011.7 1011.7 0.0
04/02:00pm 24.1 22.8 13.6 52 6.1 SE 13 17 7 9 1011.7 1011.7 0.0
04/01:30pm 24.4 24.0 15.3 57 5.5 SE 11 17 6 9 1011.8 1011.8 0.0
04/01:00pm 24.4 23.7 15.3 57 5.5 ESE 13 17 7 9 1012.0 1012.0 0.0
04/12:30pm 24.7 24.7 15.3 56 5.7 ESE 9 13 5 7 1012.3 1012.3 0.0
04/12:00pm 24.5 24.7 15.7 58 5.3 E 9 13 5 7 1012.8 1012.8 0.0
04/11:30am 24.5 24.9 16.2 60 5.1 ESE 9 13 5 7 1013.4 1013.4 0.0
04/11:00am 24.7 25.4 15.6 57 5.5 SE 6 11 3 6 1013.7 1013.7 0.0
04/10:30am 24.5 24.3 14.6 54 5.9 S 9 13 5 7 1014.0 1014.0 0.0
04/10:00am 23.3 23.6 15.9 63 4.5 S 9 15 5 8 1014.1 1014.1 0.0
04/09:30am 23.4 24.0 16.7 66 4.1 S 9 15 5 8 1014.1 1014.1 0.0
04/09:00am 21.9 23.2 17.1 74 2.9 S 6 9 3 5 1014.1 1014.1 0.0
04/08:30am 20.9 22.0 16.7 77 2.5 S 6 7 3 4 1014.0 1014.0 0.0
04/08:00am 19.9 22.7 18.0 89 1.2 CALM 0 0 0 0 1014.0 1014.0 0.0
04/07:30am 18.3 20.7 17.1 93 0.7 CALM 0 0 0 0 1013.8 1013.8 0.0
04/07:00am 16.9 19.2 16.7 99 0.1 CALM 0 0 0 0 1013.6 1013.6 0.0
04/06:30am 15.7 17.5 15.5 99 0.1 CALM 0 0 0 0 1013.3 1013.3 0.0
04/06:00am 15.8 17.6 15.6 99 0.1 CALM 0 0 0 0 1012.8 1012.8 0.0
04/05:30am 16.2 18.2 16.0 99 0.1 CALM 0 0 0 0 1012.5 1012.5 0.0
04/05:00am 16.4 18.5 16.2 99 0.1 CALM 0 0 0 0 1012.2 1012.2 0.0
04/04:30am 16.6 18.8 16.4 99 0.1 CALM 0 0 0 0 1012.2 1012.2 0.0
04/04:00am 16.6 18.8 16.4 99 0.1 CALM 0 0 0 0 1012.2 1012.2 0.0
04/03:30am 16.7 18.9 16.5 99 0.1 CALM 0 0 0 0 1011.9 1011.9 0.0
04/03:00am 16.9 19.2 16.7 99 0.1 CALM 0 0 0 0 1011.9 1011.9 0.0
04/02:30am 16.9 18.4 16.7 99 0.1 NW 4 6 2 3 1011.8 1011.8 0.0
04/02:00am 17.1 18.7 16.9 99 0.1 NW 4 6 2 3 1012.0 1012.0 0.0
04/01:30am 17.2 18.8 17.0 99 0.1 WNW 4 6 2 3 1012.1 1012.1 0.0
04/01:00am 17.5 19.6 17.2 98 0.2 WSW 2 7 1 4 1012.6 1012.6 0.0
04/12:30am 18.0 20.7 17.8 99 0.1 CALM 0 6 0 3 1012.7 1012.7 0.0
04/12:00am 18.0 20.3 17.8 99 0.1 NNW 2 6 1 3 1012.8 1012.8 0.0
 
Date/Time
EST
Tmp

°C
App
Tmp
°C
Dew
Point
°C
Rel
Hum
%
Delta-T

°C
Wind Press
QNH
hPa
Press
MSL
hPa
Rain
since
9 am
mm
Dir
 
Spd
km/h
Gust
km/h
Spd
kts
Gust
kts
03/11:30pm 18.4 21.3 18.1 98 0.2 CALM 0 0 0 0 1012.9 1012.9 0.0
03/11:00pm 18.6 20.4 18.3 98 0.2 NW 6 9 3 5 1013.0 1013.0 0.0
03/10:30pm 18.7 21.4 17.7 94 0.6 CALM 0 0 0 0 1013.1 1013.1 0.0
03/10:00pm 19.4 22.3 18.1 92 0.8 CALM 0 0 0 0 1013.4 1013.4 0.0
03/09:30pm 19.9 22.3 18.7 93 0.7 SSW 4 7 2 4 1013.3 1013.3 0.0
03/09:00pm 20.0 22.1 18.1 89 1.2 SW 4 7 2 4 1013.3 1013.3 0.0
03/08:30pm 20.2 22.9 18.7 91 0.9 SSW 2 7 1 4 1013.2 1013.2 0.0
03/08:00pm 20.3 23.4 18.6 90 1.1 CALM 0 6 0 3 1013.0 1013.0 0.0
03/07:30pm 20.5 23.4 18.3 87 1.4 CALM 0 4 0 2 1012.8 1012.8 0.0
03/07:00pm 20.9 23.8 18.3 85 1.6 CALM 0 0 0 0 1012.6 1012.6 0.0
03/06:30pm 21.5 23.6 18.1 81 2.1 WSW 4 7 2 4 1012.3 1012.3 0.0
03/06:00pm 21.7 24.3 17.5 77 2.6 CALM 0 2 0 1 1011.7 1011.7 0.0
03/05:30pm 21.9 23.4 17.5 76 2.7 E 6 9 3 5 1011.4 1011.4 0.0
03/05:00pm 22.3 23.7 17.4 74 3.0 E 6 11 3 6 1011.1 1011.1 0.0
03/04:30pm 22.5 23.7 17.4 73 3.1 ENE 7 11 4 6 1010.5 1010.5 0.0
03/04:00pm 22.9 23.7 17.4 71 3.4 NE 9 13 5 7 1010.2 1010.2 0.0
03/03:30pm 23.1 23.7 16.9 68 3.8 NE 9 15 5 8 1010.2 1010.2 0.0
03/03:00pm 23.4 23.6 16.7 66 4.1 ENE 11 15 6 8 1010.1 1010.1 0.0
03/02:30pm 23.8 24.0 16.8 65 4.3 SE 11 17 6 9 1009.8 1009.8 0.0
03/02:00pm 25.1 27.1 17.0 60 5.0 W 2 7 1 4 1009.7 1009.7 0.0
03/01:30pm 24.7 25.5 15.9 58 5.3 WNW 6 9 3 5 1010.0 1010.0 0.0
03/01:00pm 26.0 27.7 17.1 58 5.5 WNW 4 9 2 5 1010.1 1010.1 0.0
03/12:30pm 25.5 26.3 16.4 57 5.6 WSW 7 13 4 7 1010.5 1010.5 0.0
03/12:00pm 24.8 25.2 15.4 56 5.7 W 7 15 4 8 1011.1 1011.1 0.0
03/11:30am 24.7 25.1 16.2 59 5.2 WSW 9 15 5 8 1011.8 1011.8 0.0

Latest Capital City Observations: Canberra | Sydney | Melbourne | Brisbane | Adelaide | Perth | Hobart | Darwin

Other Formats:

Comma delimited format used in spreadsheet applications
http://www.bom.gov.au/fwo/IDQ60901/IDQ60901.94570.axf

JavaScript Object Notation format (JSON) in row-major order
http://www.bom.gov.au/fwo/IDQ60901/IDQ60901.94570.json